createdAt,value
2017-09-15T00:00:54.434Z,98.6
2017-09-15T00:01:56.124Z,98.6
2017-09-15T00:02:57.816Z,98.6
2017-09-15T00:03:59.532Z,98.9
2017-09-15T00:05:01.206Z,98.6
2017-09-15T00:06:02.924Z,97.9
2017-09-15T00:07:04.619Z,98.0
2017-09-15T00:08:06.292Z,98.0
2017-09-15T00:09:07.994Z,98.1
2017-09-15T00:10:09.775Z,97.6
2017-09-15T00:11:11.443Z,98.3
2017-09-15T00:12:13.159Z,97.6
2017-09-15T00:13:14.847Z,97.9
2017-09-15T00:14:16.527Z,97.6
2017-09-15T00:15:18.221Z,96.9
2017-09-15T00:16:19.959Z,97.7
2017-09-15T00:17:21.671Z,97.9
2017-09-15T00:18:23.388Z,97.9
2017-09-15T00:19:25.086Z,97.8
2017-09-15T00:20:26.782Z,97.7
2017-09-15T00:21:28.475Z,97.8
2017-09-15T00:22:30.185Z,97.5
2017-09-15T00:23:31.887Z,97.9
2017-09-15T00:24:33.616Z,97.5
2017-09-15T00:25:35.308Z,97.1
2017-09-15T00:26:36.991Z,97.6
2017-09-15T00:27:38.727Z,98.2
2017-09-15T00:28:40.475Z,97.7
2017-09-15T00:29:42.192Z,97.4
2017-09-15T00:30:43.881Z,98.0
2017-09-15T00:31:45.625Z,98.2
2017-09-15T00:32:47.319Z,97.8
2017-09-15T00:33:49.215Z,97.9
2017-09-15T00:34:50.902Z,98.1
2017-09-15T00:35:52.680Z,98.4
2017-09-15T00:36:54.385Z,98.2
2017-09-15T00:37:56.141Z,97.9
2017-09-15T00:38:57.839Z,98.3
2017-09-15T00:39:59.533Z,97.9
2017-09-15T00:41:01.216Z,98.3
2017-09-15T00:42:02.921Z,97.8
2017-09-15T00:43:04.631Z,98.2
2017-09-15T00:44:06.346Z,97.6
2017-09-15T00:45:08.048Z,97.4
2017-09-15T00:46:09.743Z,97.7
2017-09-15T00:47:11.469Z,97.5
2017-09-15T00:48:13.170Z,97.7
2017-09-15T00:49:14.887Z,97.4
2017-09-15T00:50:16.564Z,98.2
2017-09-15T00:51:18.246Z,97.7
2017-09-15T00:52:19.934Z,96.9
2017-09-15T00:53:21.621Z,96.8
2017-09-15T00:54:23.328Z,96.8
2017-09-15T00:55:25.089Z,96.5
2017-09-15T00:56:26.796Z,96.8
2017-09-15T00:57:28.494Z,96.6
2017-09-15T00:58:30.191Z,96.4
2017-09-15T00:59:31.871Z,96.0
2017-09-15T01:00:33.550Z,96.4
2017-09-15T01:01:35.240Z,96.3
2017-09-15T01:02:36.916Z,96.2
2017-09-15T01:03:38.602Z,97.0
2017-09-15T01:04:40.306Z,96.8
2017-09-15T01:05:42.010Z,96.1
2017-09-15T01:06:43.713Z,96.6
2017-09-15T01:07:45.447Z,97.2
2017-09-15T01:08:47.202Z,96.8
2017-09-15T01:09:48.898Z,96.7
2017-09-15T01:10:50.625Z,96.7
2017-09-15T01:11:52.342Z,96.2
2017-09-15T01:12:54.037Z,96.1
2017-09-15T01:13:55.720Z,96.5
2017-09-15T01:14:57.436Z,96.5
2017-09-15T01:15:59.164Z,96.8
2017-09-15T01:17:00.823Z,96.7
2017-09-15T01:18:02.522Z,96.3
2017-09-15T01:19:04.221Z,96.5
2017-09-15T01:20:05.916Z,97.0
2017-09-15T01:21:07.597Z,96.2
2017-09-15T01:22:09.288Z,96.7
2017-09-15T01:23:10.994Z,96.2
2017-09-15T01:24:12.672Z,96.3
2017-09-15T01:25:14.399Z,96.4
2017-09-15T01:26:16.096Z,96.8
2017-09-15T01:27:17.801Z,96.4
2017-09-15T01:28:19.500Z,96.4
2017-09-15T01:29:21.199Z,96.2
2017-09-15T01:30:22.904Z,96.3
2017-09-15T01:31:24.598Z,96.1
2017-09-15T01:32:26.286Z,96.2
2017-09-15T01:33:27.987Z,96.4
2017-09-15T01:34:29.689Z,95.7
2017-09-15T01:35:31.397Z,95.6
2017-09-15T01:36:33.097Z,95.5
2017-09-15T01:37:34.795Z,95.8
2017-09-15T01:38:36.495Z,96.2
2017-09-15T01:39:38.210Z,96.4
2017-09-15T01:40:39.924Z,96.3
2017-09-15T01:41:41.617Z,96.2
2017-09-15T01:42:43.315Z,96.8
2017-09-15T01:43:44.979Z,96.6
2017-09-15T01:44:46.757Z,96.8
2017-09-15T01:45:48.469Z,96.4
2017-09-15T01:46:50.150Z,96.8
2017-09-15T01:47:51.876Z,96.6
2017-09-15T01:48:53.579Z,96.5
2017-09-15T01:49:55.319Z,96.5
2017-09-15T01:50:57.007Z,96.6
2017-09-15T01:51:58.694Z,96.6
2017-09-15T01:53:00.385Z,97.2
2017-09-15T01:54:02.089Z,96.4
2017-09-15T01:55:03.907Z,96.4
2017-09-15T01:56:05.575Z,96.3
2017-09-15T01:57:07.269Z,97.9
2017-09-15T01:58:08.943Z,97.5
2017-09-15T01:59:10.673Z,98.0
2017-09-15T02:00:12.364Z,97.7
2017-09-15T02:01:14.060Z,97.7
2017-09-15T02:02:15.771Z,97.8
2017-09-15T02:03:17.465Z,96.5
2017-09-15T02:04:19.154Z,96.3
2017-09-15T02:05:20.851Z,97.8
2017-09-15T02:06:22.532Z,97.8
2017-09-15T02:07:24.243Z,97.9
2017-09-15T02:08:25.940Z,97.9
2017-09-15T02:09:27.693Z,96.4
2017-09-15T02:10:29.391Z,96.5
2017-09-15T02:11:31.054Z,97.7
2017-09-15T02:12:32.736Z,96.8
2017-09-15T02:13:34.412Z,97.8
2017-09-15T02:14:36.120Z,97.7
2017-09-15T02:15:37.832Z,96.6
2017-09-15T02:16:39.513Z,96.8
2017-09-15T02:17:42.016Z,96.8
2017-09-15T02:18:43.694Z,96.8
2017-09-15T02:19:45.434Z,96.7
2017-09-15T02:20:47.171Z,97.0
2017-09-15T02:21:48.844Z,97.0
2017-09-15T02:22:50.526Z,96.8
2017-09-15T02:23:52.211Z,96.7
2017-09-15T02:24:53.941Z,96.8
2017-09-15T02:25:55.648Z,96.4
2017-09-15T02:26:57.395Z,97.3
2017-09-15T02:27:59.098Z,96.6
2017-09-15T02:29:00.799Z,96.5
2017-09-15T02:30:02.513Z,96.3
2017-09-15T02:31:04.206Z,96.5
2017-09-15T02:32:05.899Z,96.6
2017-09-15T02:33:07.602Z,96.5
2017-09-15T02:34:09.278Z,96.4
2017-09-15T02:35:10.985Z,96.6
2017-09-15T02:36:12.682Z,96.4
2017-09-15T02:37:14.378Z,96.8
2017-09-15T02:38:16.088Z,96.8
2017-09-15T02:39:17.778Z,96.6
2017-09-15T02:40:19.475Z,96.8
2017-09-15T02:41:21.160Z,96.6
2017-09-15T02:42:22.866Z,96.6
2017-09-15T02:43:24.562Z,97.0
2017-09-15T02:44:26.272Z,96.6
2017-09-15T02:45:27.947Z,96.8
2017-09-15T02:46:29.653Z,97.8
2017-09-15T02:47:31.342Z,97.4
2017-09-15T02:48:33.051Z,97.8
2017-09-15T02:49:34.731Z,98.2
2017-09-15T02:50:36.457Z,97.8
2017-09-15T02:51:38.130Z,97.8
2017-09-15T02:52:39.844Z,97.8
2017-09-15T02:53:41.538Z,97.6
2017-09-15T02:54:43.242Z,98.5
2017-09-15T02:55:44.917Z,98.4
2017-09-15T02:56:46.619Z,98.0
2017-09-15T02:57:48.382Z,98.0
2017-09-15T02:58:50.070Z,98.0
2017-09-15T02:59:51.783Z,98.2
2017-09-15T03:00:53.492Z,98.5
2017-09-15T03:01:55.273Z,98.8
2017-09-15T03:02:56.940Z,98.4
2017-09-15T03:03:58.660Z,98.1
2017-09-15T03:05:00.382Z,98.8
2017-09-15T03:06:02.132Z,98.9
2017-09-15T03:07:03.807Z,98.9
2017-09-15T03:08:05.522Z,98.9
2017-09-15T03:09:07.213Z,98.6
2017-09-15T03:10:08.886Z,98.1
2017-09-15T03:11:10.585Z,98.3
2017-09-15T03:12:12.282Z,98.1
2017-09-15T03:13:13.986Z,97.9
2017-09-15T03:14:15.673Z,98.1
2017-09-15T03:15:17.358Z,97.8
2017-09-15T03:16:19.049Z,98.5
2017-09-15T03:17:20.754Z,97.9
2017-09-15T03:18:22.438Z,97.5
2017-09-15T03:19:24.145Z,96.4
2017-09-15T03:20:25.832Z,96.8
2017-09-15T03:21:27.526Z,96.9
2017-09-15T03:22:29.221Z,96.4
2017-09-15T03:23:30.902Z,96.7
2017-09-15T03:24:32.598Z,96.8
2017-09-15T03:25:34.287Z,96.9
2017-09-15T03:26:35.978Z,96.6
2017-09-15T03:27:37.660Z,96.6
2017-09-15T03:28:39.369Z,96.8
2017-09-15T03:29:41.096Z,97.1
2017-09-15T03:30:42.790Z,97.2
2017-09-15T03:31:44.486Z,96.7
2017-09-15T03:32:46.171Z,96.7
2017-09-15T03:33:47.863Z,97.1
2017-09-15T03:34:49.571Z,96.8
2017-09-15T03:35:51.282Z,96.3
2017-09-15T03:36:52.980Z,96.1
2017-09-15T03:37:54.661Z,96.7
2017-09-15T03:38:56.364Z,96.5
2017-09-15T03:39:58.053Z,96.3
2017-09-15T03:40:59.763Z,96.4
2017-09-15T03:42:01.441Z,96.4
2017-09-15T03:43:03.127Z,96.3
2017-09-15T03:44:04.837Z,95.4
2017-09-15T03:45:06.511Z,95.6
2017-09-15T03:46:08.205Z,95.5
2017-09-15T03:47:09.888Z,95.4
2017-09-15T03:48:11.573Z,95.6
2017-09-15T03:49:13.252Z,95.5
2017-09-15T03:50:14.946Z,94.3
2017-09-15T03:51:16.649Z,94.0
2017-09-15T03:52:18.348Z,93.7
2017-09-15T03:53:20.037Z,94.0
2017-09-15T03:54:21.748Z,93.5
2017-09-15T03:55:23.454Z,94.5
2017-09-15T03:56:25.175Z,93.6
2017-09-15T03:57:26.898Z,93.9
2017-09-15T03:58:28.598Z,94.2
2017-09-15T03:59:30.288Z,93.8
2017-09-15T04:00:31.968Z,94.2
2017-09-15T04:01:33.652Z,93.9
2017-09-15T04:02:35.360Z,93.7
2017-09-15T04:03:37.074Z,94.6
2017-09-15T04:04:38.780Z,94.2
2017-09-15T04:05:40.471Z,94.0
2017-09-15T04:06:42.177Z,94.0
2017-09-15T04:07:43.866Z,94.3
2017-09-15T04:08:45.606Z,94.3
2017-09-15T04:09:47.298Z,95.1
2017-09-15T04:10:49.095Z,93.9
2017-09-15T04:11:50.788Z,94.8
2017-09-15T04:12:52.467Z,94.8
2017-09-15T04:13:54.164Z,94.8
2017-09-15T04:14:55.856Z,94.8
2017-09-15T04:15:57.555Z,94.6
2017-09-15T04:16:59.273Z,94.6
2017-09-15T04:18:01.862Z,94.9
2017-09-15T04:19:03.545Z,94.8
2017-09-15T04:20:05.285Z,94.8
2017-09-15T04:21:06.987Z,94.5
2017-09-15T04:22:08.689Z,94.7
2017-09-15T04:23:10.393Z,94.0
2017-09-15T04:24:12.070Z,94.4
2017-09-15T04:25:13.809Z,94.8
2017-09-15T04:26:15.493Z,94.3
2017-09-15T04:27:17.211Z,94.9
2017-09-15T04:28:18.900Z,94.8
2017-09-15T04:29:20.574Z,94.4
2017-09-15T04:30:22.285Z,94.6
2017-09-15T04:31:23.969Z,94.6
2017-09-15T04:32:25.667Z,94.6
2017-09-15T04:33:27.392Z,94.6
2017-09-15T04:34:29.072Z,94.9
2017-09-15T04:35:30.785Z,94.6
2017-09-15T04:36:32.473Z,94.9
2017-09-15T04:37:34.191Z,94.5
2017-09-15T04:38:35.994Z,95.1
2017-09-15T04:39:37.690Z,95.1
2017-09-15T04:40:39.362Z,94.8
2017-09-15T04:41:41.066Z,95.1
2017-09-15T04:42:42.746Z,95.5
2017-09-15T04:43:44.456Z,95.7
2017-09-15T04:44:46.157Z,95.2
2017-09-15T04:45:47.840Z,95.0
2017-09-15T04:46:49.618Z,95.5
2017-09-15T04:47:51.333Z,95.4
2017-09-15T04:48:53.040Z,95.6
2017-09-15T04:49:54.713Z,95.2
2017-09-15T04:50:56.416Z,94.6
2017-09-15T04:51:58.109Z,94.9
2017-09-15T04:52:59.797Z,94.6
2017-09-15T04:54:01.492Z,94.8
2017-09-15T04:55:03.198Z,95.0
2017-09-15T04:56:04.898Z,94.6
2017-09-15T04:57:06.584Z,94.7
2017-09-15T04:58:08.265Z,95.3
2017-09-15T04:59:09.976Z,94.6
2017-09-15T05:00:11.664Z,95.4
2017-09-15T05:01:13.379Z,95.0
2017-09-15T05:02:15.120Z,94.6
2017-09-15T05:03:16.794Z,94.7
2017-09-15T05:04:18.507Z,94.5
2017-09-15T05:05:20.174Z,94.9
2017-09-15T05:06:21.888Z,94.9
2017-09-15T05:07:23.583Z,94.8
2017-09-15T05:08:25.322Z,94.5
2017-09-15T05:09:27.023Z,94.7
2017-09-15T05:10:28.722Z,94.5
2017-09-15T05:11:30.441Z,94.6
2017-09-15T05:12:32.123Z,94.9
2017-09-15T05:13:33.834Z,94.6
2017-09-15T05:14:35.527Z,95.1
2017-09-15T05:15:37.222Z,95.1
2017-09-15T05:16:38.909Z,94.7
2017-09-15T05:17:40.613Z,94.8
2017-09-15T05:18:42.312Z,94.7
2017-09-15T05:19:44.007Z,94.4
2017-09-15T05:20:45.703Z,94.6
2017-09-15T05:21:47.401Z,94.8
2017-09-15T05:22:49.103Z,94.8
2017-09-15T05:23:50.794Z,94.8
2017-09-15T05:24:52.490Z,94.8
2017-09-15T05:25:54.190Z,95.1
2017-09-15T05:26:55.872Z,95.1
2017-09-15T05:27:57.566Z,95.0
2017-09-15T05:28:59.257Z,95.2
2017-09-15T05:30:00.963Z,95.7
2017-09-15T05:31:02.648Z,95.7
2017-09-15T05:32:04.363Z,95.4
2017-09-15T05:33:06.083Z,95.6
2017-09-15T05:34:07.759Z,95.2
2017-09-15T05:35:09.463Z,95.0
2017-09-15T05:36:11.146Z,95.6
2017-09-15T05:37:12.837Z,95.7
2017-09-15T05:38:14.536Z,96.0
2017-09-15T05:39:16.218Z,95.3
2017-09-15T05:40:17.924Z,96.0
2017-09-15T05:41:19.640Z,96.3
2017-09-15T05:42:21.336Z,96.2
2017-09-15T05:43:23.034Z,95.9
2017-09-15T05:44:24.716Z,96.7
2017-09-15T05:45:26.403Z,96.2
2017-09-15T05:46:28.155Z,96.7
2017-09-15T05:47:29.870Z,96.2
2017-09-15T05:48:31.577Z,96.6
2017-09-15T05:49:33.285Z,96.6
2017-09-15T05:50:34.978Z,96.5
2017-09-15T05:51:36.654Z,97.0
2017-09-15T05:52:38.340Z,97.8
2017-09-15T05:53:40.044Z,97.4
2017-09-15T05:54:41.741Z,97.9
2017-09-15T05:55:43.459Z,97.9
2017-09-15T05:56:45.176Z,97.8
2017-09-15T05:57:46.892Z,98.0
2017-09-15T05:58:48.584Z,97.5
2017-09-15T05:59:50.323Z,97.7
2017-09-15T06:00:52.011Z,97.7
2017-09-15T06:01:53.722Z,98.0
2017-09-15T06:02:55.421Z,98.1
2017-09-15T06:03:57.156Z,97.8
2017-09-15T06:04:58.875Z,97.8
2017-09-15T06:06:00.547Z,97.6
2017-09-15T06:07:02.257Z,97.6
2017-09-15T06:08:03.955Z,98.0
2017-09-15T06:09:05.683Z,98.0
2017-09-15T06:10:07.359Z,98.1
2017-09-15T06:11:09.085Z,98.6
2017-09-15T06:12:10.778Z,98.7
2017-09-15T06:13:12.509Z,98.5
2017-09-15T06:14:14.206Z,99.0
2017-09-15T06:15:15.902Z,98.9
2017-09-15T06:16:17.591Z,99.5
2017-09-15T06:17:19.299Z,98.8
2017-09-15T06:18:21.007Z,99.6
2017-09-15T06:19:22.664Z,100.0
2017-09-15T06:20:24.379Z,100.0
2017-09-15T06:21:26.103Z,100.0
2017-09-15T06:22:27.806Z,100.0
2017-09-15T06:23:29.546Z,100.0
2017-09-15T06:24:31.244Z,100.0
2017-09-15T06:25:32.930Z,100.0
2017-09-15T06:26:34.621Z,100.0
2017-09-15T06:27:36.318Z,100.0
2017-09-15T06:28:38.030Z,100.0
2017-09-15T06:29:39.755Z,100.0
2017-09-15T06:30:41.457Z,100.0
2017-09-15T06:31:43.160Z,100.0
2017-09-15T06:32:44.848Z,100.0
2017-09-15T06:33:46.643Z,100.0
2017-09-15T06:34:48.346Z,100.0
2017-09-15T06:35:50.076Z,99.6
2017-09-15T06:36:51.759Z,99.9
2017-09-15T06:37:53.468Z,99.7
2017-09-15T06:38:55.159Z,99.9
2017-09-15T06:39:56.958Z,98.9
2017-09-15T06:40:58.657Z,99.5
2017-09-15T06:42:00.374Z,99.9
2017-09-15T06:43:02.063Z,99.8
2017-09-15T06:44:03.751Z,99.2
2017-09-15T06:45:05.466Z,98.6
2017-09-15T06:46:07.178Z,98.3
2017-09-15T06:47:08.878Z,98.6
2017-09-15T06:48:10.588Z,98.8
2017-09-15T06:49:12.286Z,98.9
2017-09-15T06:50:13.984Z,98.8
2017-09-15T06:51:15.714Z,98.7
2017-09-15T06:52:17.412Z,98.4
2017-09-15T06:53:19.107Z,98.6
2017-09-15T06:54:20.793Z,98.9
2017-09-15T06:55:22.501Z,98.8
2017-09-15T06:56:24.200Z,98.7
2017-09-15T06:57:25.894Z,99.3
2017-09-15T06:58:27.581Z,98.6
2017-09-15T06:59:29.285Z,98.9
2017-09-15T07:00:30.969Z,99.0
2017-09-15T07:01:32.669Z,98.2
2017-09-15T07:02:34.374Z,98.2
2017-09-15T07:03:36.077Z,97.9
2017-09-15T07:04:37.760Z,98.0
2017-09-15T07:05:39.466Z,97.7
2017-09-15T07:06:41.154Z,97.3
2017-09-15T07:07:42.856Z,97.6
2017-09-15T07:08:44.560Z,97.8
2017-09-15T07:09:46.264Z,97.7
2017-09-15T07:10:47.949Z,96.5
2017-09-15T07:11:49.661Z,96.7
2017-09-15T07:12:51.412Z,96.5
2017-09-15T07:13:53.115Z,96.5
2017-09-15T07:14:54.844Z,96.7
2017-09-15T07:15:56.545Z,96.2
2017-09-15T07:16:58.256Z,96.3
2017-09-15T07:17:59.961Z,96.2
2017-09-15T07:19:01.651Z,95.7
2017-09-15T07:20:03.352Z,95.7
2017-09-15T07:21:05.063Z,95.3
2017-09-15T07:22:06.774Z,94.9
2017-09-15T07:23:08.481Z,95.3
2017-09-15T07:24:10.200Z,95.3
2017-09-15T07:25:11.967Z,95.3
2017-09-15T07:26:13.649Z,95.2
2017-09-15T07:27:15.421Z,95.1
2017-09-15T07:28:17.116Z,95.2
2017-09-15T07:29:18.816Z,95.7
2017-09-15T07:30:20.524Z,94.9
2017-09-15T07:31:22.257Z,95.0
2017-09-15T07:32:24.351Z,94.6
2017-09-15T07:33:26.047Z,94.6
2017-09-15T07:34:27.772Z,94.8
2017-09-15T07:35:29.495Z,94.5
2017-09-15T07:36:31.208Z,94.6
2017-09-15T07:37:32.903Z,93.9
2017-09-15T07:38:34.610Z,94.1
2017-09-15T07:39:37.381Z,94.4
2017-09-15T07:40:39.084Z,94.2
2017-09-15T07:41:40.785Z,93.8
2017-09-15T07:42:42.531Z,93.8
2017-09-15T07:43:44.251Z,93.5
2017-09-15T07:44:45.929Z,93.6
2017-09-15T07:45:47.690Z,93.3
2017-09-15T07:46:49.384Z,93.7
2017-09-15T07:47:51.169Z,93.5
2017-09-15T07:48:52.851Z,93.5
2017-09-15T07:49:54.565Z,93.4
2017-09-15T07:50:56.279Z,93.6
2017-09-15T07:51:57.971Z,92.9
2017-09-15T07:52:59.706Z,92.7
2017-09-15T07:54:01.437Z,92.2
2017-09-15T07:55:03.149Z,92.2
2017-09-15T07:56:04.866Z,92.2
2017-09-15T07:57:06.586Z,92.2
2017-09-15T07:58:08.289Z,92.3
2017-09-15T07:59:09.992Z,91.4
2017-09-15T08:00:11.704Z,91.6
2017-09-15T08:01:13.423Z,91.1
2017-09-15T08:02:15.169Z,91.4
2017-09-15T08:03:16.880Z,91.2
2017-09-15T08:04:18.593Z,91.4
2017-09-15T08:05:20.316Z,91.4
2017-09-15T08:06:21.989Z,91.0
2017-09-15T08:07:23.694Z,91.2
2017-09-15T08:08:25.474Z,91.5
2017-09-15T08:09:27.217Z,90.9
2017-09-15T08:10:28.936Z,90.6
2017-09-15T08:11:30.640Z,91.1
2017-09-15T08:12:32.345Z,90.6
2017-09-15T08:13:34.077Z,90.7
2017-09-15T08:14:35.790Z,90.8
2017-09-15T08:15:37.480Z,91.0
2017-09-15T08:16:39.199Z,90.9
2017-09-15T08:17:41.683Z,91.0
2017-09-15T08:18:43.465Z,91.2
2017-09-15T08:49:41.158Z,88.5
2017-09-15T08:50:42.876Z,87.9
2017-09-15T08:51:44.678Z,87.5
2017-09-15T08:52:46.404Z,87.0
2017-09-15T08:53:48.114Z,86.5
2017-09-15T08:54:49.847Z,86.6
2017-09-15T08:55:51.625Z,86.6
2017-09-15T08:56:53.323Z,86.2
2017-09-15T08:57:55.093Z,86.4
2017-09-15T08:58:56.813Z,86.1
2017-09-15T08:59:58.514Z,85.8
2017-09-15T09:01:00.237Z,85.8
2017-09-15T09:02:01.940Z,85.1
2017-09-15T09:03:03.632Z,85.5
2017-09-15T09:04:05.329Z,85.1
2017-09-15T09:05:07.056Z,85.9
2017-09-15T09:06:08.751Z,85.6
2017-09-15T09:07:10.493Z,84.2
2017-09-15T09:08:12.229Z,84.1
2017-09-15T09:09:13.978Z,83.9
2017-09-15T09:10:15.675Z,84.0
2017-09-15T09:11:17.431Z,84.1
2017-09-15T09:12:19.151Z,84.4
2017-09-15T09:13:20.931Z,84.0
2017-09-15T09:14:22.655Z,84.1
2017-09-15T09:15:24.382Z,84.5
2017-09-15T09:16:26.075Z,84.3
2017-09-15T09:17:27.767Z,84.7
2017-09-15T09:18:29.528Z,84.2
2017-09-15T09:19:31.267Z,84.2
2017-09-15T09:20:32.969Z,84.9
2017-09-15T09:21:34.715Z,84.2
2017-09-15T09:22:36.442Z,83.8
2017-09-15T09:23:38.151Z,84.2
2017-09-15T09:24:39.962Z,83.7
2017-09-15T09:25:41.703Z,84.4
2017-09-15T09:26:43.374Z,83.6
2017-09-15T09:27:45.063Z,82.8
2017-09-15T09:28:46.797Z,83.0
2017-09-15T09:29:48.528Z,82.8
2017-09-15T09:30:50.267Z,82.1
2017-09-15T09:31:51.970Z,81.9
2017-09-15T09:32:53.675Z,81.8
2017-09-15T09:33:55.374Z,81.0
2017-09-15T09:34:57.078Z,80.9
2017-09-15T09:35:58.780Z,80.6
2017-09-15T09:37:00.490Z,79.7
2017-09-15T09:38:02.203Z,79.6
2017-09-15T09:39:03.918Z,79.6
2017-09-15T09:40:05.615Z,79.9
2017-09-15T09:41:07.334Z,78.5
2017-09-15T09:42:09.063Z,78.5
2017-09-15T09:43:10.756Z,78.4
2017-09-15T09:44:12.475Z,78.0
2017-09-15T09:45:14.209Z,77.5
2017-09-15T09:46:16.021Z,75.4
2017-09-15T09:47:17.735Z,74.7
2017-09-15T09:48:19.433Z,75.6
2017-09-15T09:49:21.136Z,75.8
2017-09-15T09:50:22.834Z,75.2
2017-09-15T09:51:24.544Z,75.2
2017-09-15T09:52:26.293Z,74.8
2017-09-15T09:53:28.019Z,73.3
2017-09-15T09:54:29.725Z,73.5
2017-09-15T09:55:31.445Z,72.7
2017-09-15T09:56:33.153Z,71.6
2017-09-15T09:57:34.841Z,70.2
2017-09-15T09:58:36.608Z,70.4
2017-09-15T09:59:38.307Z,70.5
2017-09-15T10:00:40.002Z,73.4
2017-09-15T10:01:41.740Z,78.9
2017-09-15T10:02:43.452Z,81.0
2017-09-15T10:03:45.168Z,82.8
2017-09-15T10:04:46.874Z,84.2
2017-09-15T10:05:48.588Z,84.1
2017-09-15T10:06:50.278Z,83.4
2017-09-15T10:07:52.153Z,83.1
2017-09-15T10:08:53.868Z,83.2
2017-09-15T10:09:55.585Z,83.2
2017-09-15T10:10:57.262Z,83.2
2017-09-15T10:11:59.006Z,83.7
2017-09-15T10:13:00.724Z,83.7
2017-09-15T10:14:02.445Z,84.3
2017-09-15T10:15:04.160Z,84.6
2017-09-15T10:16:07.422Z,84.5
2017-09-15T10:17:09.194Z,84.6
2017-09-15T10:18:10.880Z,84.0
2017-09-15T10:19:12.582Z,84.0
2017-09-15T10:20:14.298Z,83.9
2017-09-15T10:21:16.016Z,84.3
2017-09-15T10:22:17.721Z,85.1
2017-09-15T10:23:19.444Z,85.8
2017-09-15T10:24:21.136Z,86.0
2017-09-15T10:25:22.876Z,86.1
2017-09-15T10:26:24.593Z,85.8
2017-09-15T10:27:26.323Z,85.9
2017-09-15T10:28:28.011Z,85.6
2017-09-15T10:29:29.751Z,85.6
2017-09-15T10:30:31.419Z,84.5
2017-09-15T10:31:33.186Z,84.4
2017-09-15T10:32:34.900Z,84.4
2017-09-15T10:33:36.620Z,84.0
2017-09-15T10:34:38.315Z,84.1
2017-09-15T10:35:40.018Z,84.1
2017-09-15T10:36:41.747Z,84.4
2017-09-15T10:37:43.452Z,83.7
2017-09-15T10:38:45.202Z,83.1
2017-09-15T10:39:46.928Z,82.8
2017-09-15T10:40:48.628Z,82.6
2017-09-15T10:41:50.357Z,83.8
2017-09-15T10:42:52.073Z,83.7
2017-09-15T10:43:53.809Z,83.9
2017-09-15T10:44:55.532Z,84.5
2017-09-15T10:45:57.249Z,83.9
2017-09-15T10:46:58.974Z,83.7
2017-09-15T10:48:00.673Z,83.4
2017-09-15T10:49:02.374Z,84.6
2017-09-15T10:50:04.095Z,84.4
2017-09-15T10:51:05.890Z,85.0
2017-09-15T10:52:07.625Z,84.3
2017-09-15T10:53:09.383Z,85.0
2017-09-15T10:54:11.092Z,84.1
2017-09-15T10:55:12.849Z,84.3
2017-09-15T10:56:14.574Z,84.3
2017-09-15T10:57:16.286Z,85.1
2017-09-15T10:58:17.995Z,85.2
2017-09-15T10:59:19.703Z,84.4
2017-09-15T11:00:21.420Z,84.8
2017-09-15T11:01:23.124Z,85.0
2017-09-15T11:02:24.863Z,85.6
2017-09-15T11:03:26.600Z,85.5
2017-09-15T11:04:28.309Z,86.0
2017-09-15T11:05:30.036Z,85.6
2017-09-15T11:06:31.759Z,85.5
2017-09-15T11:07:33.495Z,84.4
2017-09-15T11:08:35.200Z,84.2
2017-09-15T11:09:36.913Z,83.8
2017-09-15T11:10:38.614Z,84.3
2017-09-15T11:11:40.409Z,84.3
2017-09-15T11:12:42.126Z,83.7
2017-09-15T11:13:43.856Z,84.4
2017-09-15T11:14:45.569Z,84.5
2017-09-15T11:15:47.261Z,83.2
2017-09-15T11:16:48.961Z,84.4
2017-09-15T11:17:50.672Z,84.5
2017-09-15T11:18:52.363Z,83.5
2017-09-15T11:19:54.066Z,83.7
2017-09-15T11:20:55.781Z,83.8
2017-09-15T11:21:57.526Z,83.8
2017-09-15T11:22:59.256Z,82.9
2017-09-15T11:24:00.959Z,82.3
2017-09-15T11:25:02.738Z,80.8
2017-09-15T11:26:04.464Z,80.3
2017-09-15T11:27:06.213Z,79.2
2017-09-15T11:28:07.932Z,78.1
2017-09-15T11:29:09.637Z,77.1
2017-09-15T11:30:11.346Z,76.8
2017-09-15T11:31:13.072Z,76.1
2017-09-15T11:32:14.785Z,73.9
2017-09-15T11:33:16.503Z,73.0
2017-09-15T11:34:18.215Z,73.6
2017-09-15T11:35:19.946Z,72.9
2017-09-15T11:36:21.664Z,72.7
2017-09-15T11:37:23.394Z,72.4
2017-09-15T11:38:25.118Z,71.4
2017-09-15T11:39:26.840Z,71.3
2017-09-15T11:40:28.549Z,72.1
2017-09-15T11:41:30.254Z,70.8
2017-09-15T11:42:31.970Z,71.4
2017-09-15T11:43:33.694Z,69.7
2017-09-15T11:44:35.416Z,69.9
2017-09-15T11:45:37.149Z,69.9
2017-09-15T11:46:39.441Z,69.6
2017-09-15T11:47:41.143Z,69.9
2017-09-15T11:48:42.868Z,70.5
2017-09-15T11:49:44.747Z,70.8
2017-09-15T11:50:46.442Z,71.2
2017-09-15T11:51:48.149Z,71.4
2017-09-15T11:52:50.014Z,70.5
2017-09-15T11:53:51.758Z,68.6
2017-09-15T11:54:53.498Z,67.9
2017-09-15T11:55:55.256Z,67.4
2017-09-15T11:56:56.994Z,68.0
2017-09-15T11:57:58.691Z,68.9
2017-09-15T11:59:00.433Z,68.0
2017-09-15T12:00:02.290Z,68.0
2017-09-15T12:01:04.015Z,68.7
2017-09-15T12:02:05.736Z,68.7
2017-09-15T12:03:07.479Z,67.6
2017-09-15T12:04:09.177Z,68.5
2017-09-15T12:05:10.890Z,68.3
2017-09-15T12:06:12.637Z,70.3
2017-09-15T12:07:14.384Z,70.0
2017-09-15T12:08:16.155Z,70.7
2017-09-15T12:09:17.880Z,72.0
2017-09-15T12:10:19.625Z,72.6
2017-09-15T12:11:21.338Z,71.9
2017-09-15T12:12:23.080Z,71.1
2017-09-15T12:13:25.527Z,70.5
2017-09-15T12:14:27.223Z,69.9
2017-09-15T12:15:28.976Z,71.1
2017-09-15T12:16:30.697Z,69.7
2017-09-15T12:17:32.421Z,70.1
2017-09-15T12:18:34.144Z,69.2
2017-09-15T12:19:36.675Z,68.9
2017-09-15T12:20:38.373Z,69.2
2017-09-15T12:21:40.110Z,71.0
2017-09-15T12:22:41.846Z,71.3
2017-09-15T12:23:43.660Z,71.2
2017-09-15T12:24:45.441Z,69.9
2017-09-15T12:25:47.174Z,70.1
2017-09-15T12:26:49.144Z,69.9
2017-09-15T12:27:50.888Z,69.8
2017-09-15T12:28:52.627Z,69.4
2017-09-15T12:29:54.366Z,70.5
2017-09-15T12:30:56.103Z,71.5
2017-09-15T12:31:57.811Z,72.0
2017-09-15T12:32:59.552Z,72.1
2017-09-15T12:34:01.288Z,71.3
2017-09-15T12:35:03.053Z,72.1
2017-09-15T12:36:04.792Z,71.9
2017-09-15T12:37:06.526Z,72.9
2017-09-15T12:38:08.288Z,72.4
2017-09-15T12:39:10.025Z,71.8
2017-09-15T12:40:12.006Z,71.7
2017-09-15T12:41:13.701Z,71.4
2017-09-15T12:42:15.473Z,71.5
2017-09-15T12:43:18.057Z,73.3
2017-09-15T12:44:19.997Z,72.8
2017-09-15T12:45:22.464Z,73.2
2017-09-15T12:46:25.847Z,72.7
2017-09-15T12:47:28.135Z,72.6
2017-09-15T12:48:30.256Z,70.9
2017-09-15T12:49:32.033Z,71.3
2017-09-15T12:50:34.155Z,71.7
2017-09-15T12:51:36.201Z,71.1
2017-09-15T12:52:38.163Z,71.9
2017-09-15T12:53:40.113Z,71.5
2017-09-15T12:54:42.075Z,71.3
2017-09-15T12:55:44.133Z,73.7
2017-09-15T12:56:46.917Z,73.6
2017-09-15T12:57:48.724Z,75.0
2017-09-15T12:58:50.537Z,74.8
2017-09-15T12:59:52.355Z,73.8
2017-09-15T13:00:54.355Z,74.4
2017-09-15T13:01:56.127Z,73.7
2017-09-15T13:02:57.998Z,73.4
2017-09-15T13:03:59.756Z,73.2
2017-09-15T13:05:01.775Z,74.4
2017-09-15T13:06:03.471Z,74.8
2017-09-15T13:07:05.209Z,75.1
2017-09-15T13:08:06.962Z,71.9
2017-09-15T13:09:08.773Z,73.9
2017-09-15T13:10:10.489Z,74.6
2017-09-15T13:11:12.216Z,74.1
2017-09-15T13:12:13.925Z,73.4
2017-09-15T13:13:15.655Z,74.1
2017-09-15T13:14:17.375Z,74.4
2017-09-15T13:15:19.095Z,74.4
2017-09-15T13:16:20.835Z,74.8
2017-09-15T13:17:22.548Z,74.6
2017-09-15T13:18:24.252Z,74.9
2017-09-15T13:19:25.976Z,75.3
2017-09-15T13:20:27.747Z,74.9
2017-09-15T13:21:29.465Z,74.4
2017-09-15T13:22:31.214Z,72.6
2017-09-15T13:23:32.977Z,74.4
2017-09-15T13:24:34.725Z,74.4
2017-09-15T13:25:36.464Z,74.0
2017-09-15T13:26:38.206Z,73.5
2017-09-15T13:27:39.927Z,74.4
2017-09-15T13:28:41.672Z,75.0
2017-09-15T13:29:43.389Z,75.7
2017-09-15T13:30:45.102Z,75.9
2017-09-15T13:31:46.831Z,74.6
2017-09-15T13:32:48.547Z,74.9
2017-09-15T13:33:50.313Z,75.8
2017-09-15T13:34:52.044Z,76.3
2017-09-15T13:35:53.780Z,75.2
2017-09-15T13:36:55.477Z,76.1
2017-09-15T13:37:57.195Z,75.4
2017-09-15T13:38:59.181Z,74.3
2017-09-15T13:40:00.829Z,75.8
2017-09-15T13:41:02.600Z,76.0
2017-09-15T13:42:04.394Z,74.8
2017-09-15T13:43:06.152Z,74.9
2017-09-15T13:44:07.847Z,75.6
2017-09-15T13:45:09.586Z,74.8
2017-09-15T13:46:11.304Z,75.1
2017-09-15T13:47:13.021Z,73.7
2017-09-15T13:48:14.728Z,72.6
2017-09-15T13:49:16.418Z,71.8
2017-09-15T13:50:18.144Z,71.7
2017-09-15T13:51:19.859Z,72.8
2017-09-15T13:52:21.607Z,71.9
2017-09-15T13:53:23.321Z,71.9
2017-09-15T13:54:25.060Z,71.9
2017-09-15T13:55:26.791Z,72.5
2017-09-15T13:56:28.508Z,73.1
2017-09-15T14:10:25.962Z,71.4
2017-09-15T14:11:27.685Z,73.6
2017-09-15T14:12:29.401Z,72.8
2017-09-15T14:13:31.112Z,72.7
2017-09-15T14:14:32.850Z,72.9
2017-09-15T14:15:34.574Z,72.9
2017-09-15T14:16:36.288Z,73.4
2017-09-15T14:17:38.018Z,72.5
2017-09-15T14:18:39.765Z,72.2
2017-09-15T14:19:41.498Z,73.5
2017-09-15T14:20:43.232Z,73.9
2017-09-15T14:21:44.965Z,72.4
2017-09-15T14:22:46.693Z,72.2
2017-09-15T14:23:48.412Z,75.0